Dies, Texas
Current Conditions -  °F | °C
As of 8:55 PM on Saturday 25 Oct 2014 (Local Time) from KJAS Reporting Station
Clear Clear  
Wind Chill: 15°   Ceiling: Unl
Heat Index: 15°   Visibility: 7mi
Dew Point: 15°   Wind: 0mph
Humidity: 96%   Direction: NA
Pressure: 30.13"   Gusts: NA
Location:  30.7643°N, 94.4448°W
Report Text: KJAS 260155Z AUTO 00000KT 7SM CLR 15/15 A3013 RMK AO2 T01510145
Loading
Personal Weather Stations






























Interactive Weather Map
Tropical Storm Tracking
New forecast layout! Learn more

10-Day Weather Forecast

Advertisements
Track Severe Weather on mobile